Pagina principale
METAR-TAF:

METAR-TAF

Aeroporti :

Aeroporto di Taranto-Grottaglie

Taranto, Italia

latitudine: 40-31N, longitudine: 017-24E, altezza: 64 m

Osservazione

Il bollettino è stato emesso 1 ora e 3 minuti fa, alle 12:50 UTC
Vento 10 kt da ovest/sud-ovest, variando fra sud/sud-ovest e ovest/nord-ovest
Temperature 28°C
Umidità 37%
Pressione 1003 hPa
Visibilità 10 km o più
Poco nuvoloso ad un'altezza di 3000 ft

METAR: LIBG 271250Z 24010KT 210V290 9999 FEW030 28/12 Q1003

Ora: 15:53 (13:53 UTC)

Previsione

Il bollettino è stato emesso 2 ore e 53 minuti fa, alle 11:00 UTC
Previsione valida dal 27 alle 12 UTC al 27 alle 21 UTC
Vento 15 kt da ovest/sud-ovest
Visibilità 10 km o più
Poco nuvoloso ad un'altezza di 3000 ft

TAF: LIBG 271100Z 2712/2721 25015KT 9999 FEW030

Osservazioni e previsioni meteorologiche di più di 4000 aeroporti (messaggi METAR e TAF).

Le stazioni disponibili sono rappresentate dai dischi gialli e rossi sulla carta.

Puntare il mouse per vedere il nome della stazione.

Clicca sopra per visualizzare le osservazioni e previsioni meteorologiche.

Per cambiare la mappa : fare clic sui pulsanti verdi con una croce nera per ingrandire, il pulsante verde con un trattino per diminuire, o sulla freccia verde per le mappe adiacenti.


METAR-TAF: